sensor_id;sensor_type;location;lat;lon;timestamp;pressure;altitude;pressure_sealevel;temperature;humidity
27805;BME280;15183;51.350;11.102;2023-05-21T00:01:46;100207.84;;;18.70;55.02
27805;BME280;15183;51.350;11.102;2023-05-21T00:04:13;100238.41;;;18.84;55.34
27805;BME280;15183;51.350;11.102;2023-05-21T00:06:40;100205.69;;;18.66;54.74
27805;BME280;15183;51.350;11.102;2023-05-21T00:09:07;100225.00;;;18.79;55.25
27805;BME280;15183;51.350;11.102;2023-05-21T00:11:33;100201.94;;;18.68;55.04
27805;BME280;15183;51.350;11.102;2023-05-21T00:14:00;100212.13;;;18.76;55.32
27805;BME280;15183;51.350;11.102;2023-05-21T00:16:26;100223.94;;;18.75;55.83
27805;BME280;15183;51.350;11.102;2023-05-21T00:18:52;100219.91;;;18.77;55.15
27805;BME280;15183;51.350;11.102;2023-05-21T00:21:20;100209.97;;;18.73;55.43
27805;BME280;15183;51.350;11.102;2023-05-21T00:23:52;100221.53;;;18.78;55.14
27805;BME280;15183;51.350;11.102;2023-05-21T00:26:21;100210.50;;;18.75;55.49
27805;BME280;15183;51.350;11.102;2023-05-21T00:28:49;100224.47;;;18.77;55.43
27805;BME280;15183;51.350;11.102;2023-05-21T00:31:16;100209.69;;;18.74;55.42
27805;BME280;15183;51.350;11.102;2023-05-21T00:33:42;100201.38;;;18.71;55.66
27805;BME280;15183;51.350;11.102;2023-05-21T00:36:08;100201.38;;;18.76;55.37
27805;BME280;15183;51.350;11.102;2023-05-21T00:38:40;100192.53;;;18.70;55.77
27805;BME280;15183;51.350;11.102;2023-05-21T00:41:09;100190.09;;;18.74;55.56
27805;BME280;15183;51.350;11.102;2023-05-21T00:43:36;100197.09;;;18.75;56.04
27805;BME280;15183;51.350;11.102;2023-05-21T00:46:07;100185.81;;;18.73;56.04
27805;BME280;15183;51.350;11.102;2023-05-21T00:48:34;100193.88;;;18.73;55.60
27805;BME280;15183;51.350;11.102;2023-05-21T00:51:00;100191.72;;;18.70;55.96
27805;BME280;15183;51.350;11.102;2023-05-21T00:53:27;100184.22;;;18.66;55.48
27805;BME280;15183;51.350;11.102;2023-05-21T00:55:53;100179.09;;;18.65;55.42
27805;BME280;15183;51.350;11.102;2023-05-21T00:58:19;100189.28;;;18.73;55.86
27805;BME280;15183;51.350;11.102;2023-05-21T01:00:46;100190.13;;;18.69;56.19
27805;BME280;15183;51.350;11.102;2023-05-21T01:03:12;100183.41;;;18.66;56.12
27805;BME280;15183;51.350;11.102;2023-05-21T01:05:40;100179.94;;;18.65;56.00
27805;BME280;15183;51.350;11.102;2023-05-21T01:08:10;100175.09;;;18.62;55.80
27805;BME280;15183;51.350;11.102;2023-05-21T01:10:36;100177.78;;;18.68;56.41
27805;BME280;15183;51.350;11.102;2023-05-21T01:13:02;100172.94;;;18.64;56.25
27805;BME280;15183;51.350;11.102;2023-05-21T01:15:29;100181.78;;;18.70;56.30
27805;BME280;15183;51.350;11.102;2023-05-21T01:17:56;100183.38;;;18.71;55.86
27805;BME280;15183;51.350;11.102;2023-05-21T01:20:23;100180.16;;;18.69;56.08
27805;BME280;15183;51.350;11.102;2023-05-21T01:22:54;100160.34;;;18.60;56.12
27805;BME280;15183;51.350;11.102;2023-05-21T01:25:22;100149.88;;;18.53;55.99
27805;BME280;15183;51.350;11.102;2023-05-21T01:27:50;100175.88;;;18.68;56.45
27805;BME280;15183;51.350;11.102;2023-05-21T01:30:18;100172.13;;;18.64;56.68
27805;BME280;15183;51.350;11.102;2023-05-21T01:32:59;100178.84;;;18.66;56.42
27805;BME280;15183;51.350;11.102;2023-05-21T01:35:34;100181.53;;;18.66;56.56
27805;BME280;15183;51.350;11.102;2023-05-21T01:40:54;100168.66;;;18.69;56.36
27805;BME280;15183;51.350;11.102;2023-05-21T01:43:26;100170.00;;;18.61;56.18
27805;BME280;15183;51.350;11.102;2023-05-21T01:45:55;100158.19;;;18.57;56.57
27805;BME280;15183;51.350;11.102;2023-05-21T01:48:25;100154.19;;;18.49;56.22
27805;BME280;15183;51.350;11.102;2023-05-21T01:50:53;100167.59;;;18.59;56.51
27805;BME280;15183;51.350;11.102;2023-05-21T01:53:21;100150.41;;;18.50;56.33
27805;BME280;15183;51.350;11.102;2023-05-21T01:55:47;100163.31;;;18.58;56.83
27805;BME280;15183;51.350;11.102;2023-05-21T01:58:14;100154.44;;;18.52;56.50
27805;BME280;15183;51.350;11.102;2023-05-21T02:00:41;100168.69;;;18.58;56.23
27805;BME280;15183;51.350;11.102;2023-05-21T02:03:07;100165.47;;;18.56;56.34
27805;BME280;15183;51.350;11.102;2023-05-21T02:05:34;100167.06;;;18.57;56.74
27805;BME280;15183;51.350;11.102;2023-05-21T02:08:00;100165.47;;;18.56;56.79
27805;BME280;15183;51.350;11.102;2023-05-21T02:10:27;100157.38;;;18.51;56.32
27805;BME280;15183;51.350;11.102;2023-05-21T02:12:53;100157.69;;;18.49;56.49
27805;BME280;15183;51.350;11.102;2023-05-21T02:15:20;100160.59;;;18.53;57.02
27805;BME280;15183;51.350;11.102;2023-05-21T02:17:47;100165.44;;;18.46;56.85
27805;BME280;15183;51.350;11.102;2023-05-21T02:20:16;100165.44;;;18.51;56.57
27805;BME280;15183;51.350;11.102;2023-05-21T02:22:45;100151.50;;;18.39;56.94
27805;BME280;15183;51.350;11.102;2023-05-21T02:25:14;100167.88;;;18.52;57.16
27805;BME280;15183;51.350;11.102;2023-05-21T02:27:42;100177.25;;;18.50;57.09
27805;BME280;15183;51.350;11.102;2023-05-21T02:30:14;100173.50;;;18.51;57.16
27805;BME280;15183;51.350;11.102;2023-05-21T02:32:41;100162.78;;;18.46;56.77
27805;BME280;15183;51.350;11.102;2023-05-21T02:35:10;100157.41;;;18.46;56.70
27805;BME280;15183;51.350;11.102;2023-05-21T02:37:36;100170.28;;;18.49;56.85
27805;BME280;15183;51.350;11.102;2023-05-21T02:40:06;100152.88;;;18.41;56.83
27805;BME280;15183;51.350;11.102;2023-05-21T02:42:33;100150.44;;;18.40;57.04
27805;BME280;15183;51.350;11.102;2023-05-21T02:45:01;100158.75;;;18.43;56.81
27805;BME280;15183;51.350;11.102;2023-05-21T02:47:28;100164.91;;;18.49;57.31
27805;BME280;15183;51.350;11.102;2023-05-21T02:49:54;100172.69;;;18.50;57.30
27805;BME280;15183;51.350;11.102;2023-05-21T02:52:20;100157.41;;;18.46;56.66
27805;BME280;15183;51.350;11.102;2023-05-21T02:54:47;100161.44;;;18.48;56.92
27805;BME280;15183;51.350;11.102;2023-05-21T02:57:14;100170.81;;;18.56;56.91
27805;BME280;15183;51.350;11.102;2023-05-21T02:59:40;100166.25;;;18.57;57.00
27805;BME280;15183;51.350;11.102;2023-05-21T03:02:06;100165.72;;;18.55;57.02
27805;BME280;15183;51.350;11.102;2023-05-21T03:04:33;100164.09;;;18.54;57.01
27805;BME280;15183;51.350;11.102;2023-05-21T03:07:05;100144.53;;;18.43;56.61
27805;BME280;15183;51.350;11.102;2023-05-21T03:09:31;100141.84;;;18.37;56.77
27805;BME280;15183;51.350;11.102;2023-05-21T03:11:57;100135.44;;;18.33;56.74
27805;BME280;15183;51.350;11.102;2023-05-21T03:14:24;100168.13;;;18.46;56.33
27805;BME280;15183;51.350;11.102;2023-05-21T03:16:50;100157.16;;;18.42;56.54
27805;BME280;15183;51.350;11.102;2023-05-21T03:19:17;100154.22;;;18.33;56.56
27805;BME280;15183;51.350;11.102;2023-05-21T03:21:43;100150.47;;;18.29;56.95
27805;BME280;15183;51.350;11.102;2023-05-21T03:24:09;100157.69;;;18.29;56.81
27805;BME280;15183;51.350;11.102;2023-05-21T03:26:38;100147.25;;;18.22;56.46
27805;BME280;15183;51.350;11.102;2023-05-21T03:29:05;100143.47;;;18.18;56.97
27805;BME280;15183;51.350;11.102;2023-05-21T03:31:31;100148.31;;;18.21;57.02
27805;BME280;15183;51.350;11.102;2023-05-21T03:33:58;100148.81;;;18.18;57.12
27805;BME280;15183;51.350;11.102;2023-05-21T03:36:24;100155.00;;;18.18;56.80
27805;BME280;15183;51.350;11.102;2023-05-21T03:38:50;100160.66;;;18.22;56.82
27805;BME280;15183;51.350;11.102;2023-05-21T03:41:17;100160.66;;;18.22;57.29
27805;BME280;15183;51.350;11.102;2023-05-21T03:43:43;100156.88;;;18.18;56.96
27805;BME280;15183;51.350;11.102;2023-05-21T03:46:10;100155.53;;;18.20;57.40
27805;BME280;15183;51.350;11.102;2023-05-21T03:48:36;100147.50;;;18.26;57.00
27805;BME280;15183;51.350;11.102;2023-05-21T03:51:03;100169.47;;;18.33;57.04
27805;BME280;15183;51.350;11.102;2023-05-21T03:53:29;100161.97;;;18.25;57.23
27805;BME280;15183;51.350;11.102;2023-05-21T03:55:55;100168.41;;;18.34;57.09
27805;BME280;15183;51.350;11.102;2023-05-21T03:58:22;100169.22;;;18.34;57.07
27805;BME280;15183;51.350;11.102;2023-05-21T04:00:49;100160.66;;;18.32;57.16
27805;BME280;15183;51.350;11.102;2023-05-21T04:03:15;100166.25;;;18.36;57.60
27805;BME280;15183;51.350;11.102;2023-05-21T04:05:43;100159.56;;;18.33;57.58
27805;BME280;15183;51.350;11.102;2023-05-21T04:08:10;100162.50;;;18.37;57.25
27805;BME280;15183;51.350;11.102;2023-05-21T04:10:36;100167.06;;;18.47;57.13
27805;BME280;15183;51.350;11.102;2023-05-21T04:13:03;100168.66;;;18.48;57.00
27805;BME280;15183;51.350;11.102;2023-05-21T04:15:29;100172.41;;;18.62;57.44
27805;BME280;15183;51.350;11.102;2023-05-21T04:17:56;100163.28;;;18.63;57.58
27805;BME280;15183;51.350;11.102;2023-05-21T04:20:23;100164.63;;;18.76;57.16
27805;BME280;15183;51.350;11.102;2023-05-21T04:22:49;100173.72;;;18.80;57.58
27805;BME280;15183;51.350;11.102;2023-05-21T04:25:16;100170.47;;;18.94;57.43
27805;BME280;15183;51.350;11.102;2023-05-21T04:27:43;100167.22;;;19.02;56.72
27805;BME280;15183;51.350;11.102;2023-05-21T04:30:12;100174.47;;;19.07;56.71
27805;BME280;15183;51.350;11.102;2023-05-21T04:32:39;100168.00;;;19.13;56.92
27805;BME280;15183;51.350;11.102;2023-05-21T04:35:06;100176.00;;;19.23;56.90
27805;BME280;15183;51.350;11.102;2023-05-21T04:37:32;100167.41;;;19.27;57.06
27805;BME280;15183;51.350;11.102;2023-05-21T04:40:00;100173.00;;;19.35;56.46
27805;BME280;15183;51.350;11.102;2023-05-21T04:42:27;100164.94;;;19.35;56.79
27805;BME280;15183;51.350;11.102;2023-05-21T04:44:55;100168.66;;;19.45;56.61
27805;BME280;15183;51.350;11.102;2023-05-21T04:47:24;100179.63;;;19.53;56.75
27805;BME280;15183;51.350;11.102;2023-05-21T04:49:50;100170.50;;;19.55;56.93
27805;BME280;15183;51.350;11.102;2023-05-21T04:52:18;100183.59;;;19.66;56.77
27805;BME280;15183;51.350;11.102;2023-05-21T04:54:44;100180.09;;;19.71;56.64
27805;BME280;15183;51.350;11.102;2023-05-21T04:57:12;100180.09;;;19.66;56.60
27805;BME280;15183;51.350;11.102;2023-05-21T04:59:39;100170.44;;;19.65;56.05
27805;BME280;15183;51.350;11.102;2023-05-21T05:02:06;100188.16;;;19.71;56.54
27805;BME280;15183;51.350;11.102;2023-05-21T05:04:32;100179.28;;;19.71;56.73
27805;BME280;15183;51.350;11.102;2023-05-21T05:06:59;100179.00;;;19.72;56.39
27805;BME280;15183;51.350;11.102;2023-05-21T05:09:25;100179.25;;;19.76;56.16
27805;BME280;15183;51.350;11.102;2023-05-21T05:11:52;100170.09;;;19.77;56.18
27805;BME280;15183;51.350;11.102;2023-05-21T05:14:18;100172.25;;;19.75;56.11
27805;BME280;15183;51.350;11.102;2023-05-21T05:16:44;100175.22;;;19.78;56.47
27805;BME280;15183;51.350;11.102;2023-05-21T05:19:13;100170.34;;;19.80;56.05
27805;BME280;15183;51.350;11.102;2023-05-21T05:21:39;100163.63;;;19.78;56.15
27805;BME280;15183;51.350;11.102;2023-05-21T05:24:06;100166.03;;;19.85;56.17
27805;BME280;15183;51.350;11.102;2023-05-21T05:26:32;100169.47;;;19.95;56.20
27805;BME280;15183;51.350;11.102;2023-05-21T05:28:59;100168.34;;;20.02;55.95
27805;BME280;15183;51.350;11.102;2023-05-21T05:31:25;100165.88;;;20.10;56.16
27805;BME280;15183;51.350;11.102;2023-05-21T05:33:52;100163.66;;;20.18;56.13
27805;BME280;15183;51.350;11.102;2023-05-21T05:36:18;100162.19;;;20.31;55.62
27805;BME280;15183;51.350;11.102;2023-05-21T05:38:44;100162.38;;;20.39;55.76
27805;BME280;15183;51.350;11.102;2023-05-21T05:41:11;100160.38;;;20.50;55.74
27805;BME280;15183;51.350;11.102;2023-05-21T05:43:37;100165.06;;;20.69;55.63
27805;BME280;15183;51.350;11.102;2023-05-21T05:46:04;100164.69;;;20.81;55.23
27805;BME280;15183;51.350;11.102;2023-05-21T05:48:30;100161.81;;;20.96;55.26
27805;BME280;15183;51.350;11.102;2023-05-21T05:50:57;100172.31;;;21.22;55.36
27805;BME280;15183;51.350;11.102;2023-05-21T05:53:23;100166.69;;;21.38;55.05
27805;BME280;15183;51.350;11.102;2023-05-21T05:55:49;100168.78;;;21.65;55.20
27805;BME280;15183;51.350;11.102;2023-05-21T05:58:16;100163.97;;;21.81;54.85
27805;BME280;15183;51.350;11.102;2023-05-21T06:00:42;100157.97;;;21.85;54.56
27805;BME280;15183;51.350;11.102;2023-05-21T06:03:09;100159.41;;;21.96;53.87
27805;BME280;15183;51.350;11.102;2023-05-21T06:05:37;100167.38;;;22.06;53.66
27805;BME280;15183;51.350;11.102;2023-05-21T06:08:04;100154.47;;;22.03;53.87
27805;BME280;15183;51.350;11.102;2023-05-21T06:10:30;100162.97;;;22.10;53.77
27805;BME280;15183;51.350;11.102;2023-05-21T06:12:57;100166.59;;;22.20;53.41
27805;BME280;15183;51.350;11.102;2023-05-21T06:15:23;100166.22;;;22.26;53.35
27805;BME280;15183;51.350;11.102;2023-05-21T06:17:49;100170.13;;;22.34;53.07
27805;BME280;15183;51.350;11.102;2023-05-21T06:20:16;100172.28;;;22.51;52.95
27805;BME280;15183;51.350;11.102;2023-05-21T06:22:42;100170.53;;;22.75;53.40
27805;BME280;15183;51.350;11.102;2023-05-21T06:25:09;100179.13;;;23.05;53.12
27805;BME280;15183;51.350;11.102;2023-05-21T06:27:37;100175.63;;;23.32;52.70
27805;BME280;15183;51.350;11.102;2023-05-21T06:30:04;100149.84;;;23.49;52.19
27805;BME280;15183;51.350;11.102;2023-05-21T06:32:31;100175.59;;;23.83;51.58
27805;BME280;15183;51.350;11.102;2023-05-21T06:34:57;100171.00;;;24.06;51.47
27805;BME280;15183;51.350;11.102;2023-05-21T06:37:23;100163.22;;;24.36;51.37
27805;BME280;15183;51.350;11.102;2023-05-21T06:39:50;100171.16;;;24.64;50.92
27805;BME280;15183;51.350;11.102;2023-05-21T06:42:16;100171.72;;;24.84;50.63
27805;BME280;15183;51.350;11.102;2023-05-21T06:44:43;100157.25;;;24.97;49.99
27805;BME280;15183;51.350;11.102;2023-05-21T06:47:09;100156.19;;;25.16;49.98
27805;BME280;15183;51.350;11.102;2023-05-21T06:49:36;100153.50;;;25.42;49.70
27805;BME280;15183;51.350;11.102;2023-05-21T06:52:03;100165.69;;;25.71;48.64
27805;BME280;15183;51.350;11.102;2023-05-21T06:54:29;100171.59;;;25.82;48.82
27805;BME280;15183;51.350;11.102;2023-05-21T06:56:55;100162.97;;;25.80;48.41
27805;BME280;15183;51.350;11.102;2023-05-21T06:59:22;100162.78;;;25.77;48.25
27805;BME280;15183;51.350;11.102;2023-05-21T07:01:48;100164.38;;;25.69;48.33
27805;BME280;15183;51.350;11.102;2023-05-21T07:04:15;100158.34;;;25.54;48.12
27805;BME280;15183;51.350;11.102;2023-05-21T07:06:41;100163.59;;;25.51;48.48
27805;BME280;15183;51.350;11.102;2023-05-21T07:09:07;100154.31;;;25.43;47.98
27805;BME280;15183;51.350;11.102;2023-05-21T07:11:34;100156.88;;;25.57;48.39
27805;BME280;15183;51.350;11.102;2023-05-21T07:14:00;100166.47;;;25.72;47.77
27805;BME280;15183;51.350;11.102;2023-05-21T07:16:27;100163.28;;;25.88;48.06
27805;BME280;15183;51.350;11.102;2023-05-21T07:18:53;100156.72;;;25.97;47.78
27805;BME280;15183;51.350;11.102;2023-05-21T07:21:20;100161.00;;;26.25;47.71
27805;BME280;15183;51.350;11.102;2023-05-21T07:23:46;100155.97;;;26.44;47.32
27805;BME280;15183;51.350;11.102;2023-05-21T07:26:13;100147.09;;;26.65;46.81
27805;BME280;15183;51.350;11.102;2023-05-21T07:28:39;100137.25;;;26.82;47.03
27805;BME280;15183;51.350;11.102;2023-05-21T07:31:06;100145.56;;;27.15;46.47
27805;BME280;15183;51.350;11.102;2023-05-21T07:33:33;100141.13;;;27.32;46.15
27805;BME280;15183;51.350;11.102;2023-05-21T07:36:00;100137.81;;;27.48;45.63
27805;BME280;15183;51.350;11.102;2023-05-21T07:38:26;100147.75;;;27.65;45.59
27805;BME280;15183;51.350;11.102;2023-05-21T07:40:52;100136.13;;;27.77;44.92
27805;BME280;15183;51.350;11.102;2023-05-21T07:43:19;100139.94;;;27.97;45.23
27805;BME280;15183;51.350;11.102;2023-05-21T07:45:45;100136.81;;;28.07;44.64
27805;BME280;15183;51.350;11.102;2023-05-21T07:48:12;100120.66;;;28.02;44.38
27805;BME280;15183;51.350;11.102;2023-05-21T07:50:39;100128.94;;;28.06;44.16
27805;BME280;15183;51.350;11.102;2023-05-21T07:53:05;100126.31;;;27.97;43.63
27805;BME280;15183;51.350;11.102;2023-05-21T07:55:32;100123.81;;;27.92;43.92
27805;BME280;15183;51.350;11.102;2023-05-21T07:57:58;100131.31;;;27.95;43.99
27805;BME280;15183;51.350;11.102;2023-05-21T08:00:25;100131.41;;;27.86;42.74
27805;BME280;15183;51.350;11.102;2023-05-21T08:02:51;100123.53;;;27.72;43.15
27805;BME280;15183;51.350;11.102;2023-05-21T08:05:20;100123.53;;;27.72;43.10
27805;BME280;15183;51.350;11.102;2023-05-21T08:07:48;100122.63;;;27.68;43.79
27805;BME280;15183;51.350;11.102;2023-05-21T08:10:14;100099.88;;;27.64;43.26
27805;BME280;15183;51.350;11.102;2023-05-21T08:12:41;100119.31;;;27.74;43.30
27805;BME280;15183;51.350;11.102;2023-05-21T08:15:08;100113.56;;;27.76;43.26
27805;BME280;15183;51.350;11.102;2023-05-21T08:17:35;100115.06;;;27.86;43.19
27805;BME280;15183;51.350;11.102;2023-05-21T08:20:02;100106.00;;;27.94;43.60
27805;BME280;15183;51.350;11.102;2023-05-21T08:22:29;100120.72;;;28.14;42.76
27805;BME280;15183;51.350;11.102;2023-05-21T08:24:55;100117.53;;;28.25;43.37
27805;BME280;15183;51.350;11.102;2023-05-21T08:27:22;100115.28;;;28.39;43.68
27805;BME280;15183;51.350;11.102;2023-05-21T08:29:48;100115.53;;;28.59;43.08
27805;BME280;15183;51.350;11.102;2023-05-21T08:32:14;100108.13;;;28.72;42.53
27805;BME280;15183;51.350;11.102;2023-05-21T08:34:41;100118.28;;;28.84;42.10
27805;BME280;15183;51.350;11.102;2023-05-21T08:37:07;100106.88;;;28.94;42.02
27805;BME280;15183;51.350;11.102;2023-05-21T08:39:34;100114.69;;;29.08;42.29
27805;BME280;15183;51.350;11.102;2023-05-21T08:42:41;100108.88;;;29.10;42.24
27805;BME280;15183;51.350;11.102;2023-05-21T08:45:07;100112.38;;;29.23;42.07
27805;BME280;15183;51.350;11.102;2023-05-21T08:47:35;100112.31;;;29.35;41.41
27805;BME280;15183;51.350;11.102;2023-05-21T08:50:10;100110.19;;;29.41;41.51
27805;BME280;15183;51.350;11.102;2023-05-21T08:52:37;100104.38;;;29.42;41.22
27805;BME280;15183;51.350;11.102;2023-05-21T08:55:03;100086.28;;;29.38;40.86
27805;BME280;15183;51.350;11.102;2023-05-21T08:57:31;100099.91;;;29.50;41.08
27805;BME280;15183;51.350;11.102;2023-05-21T08:59:58;100088.28;;;29.53;41.00
27805;BME280;15183;51.350;11.102;2023-05-21T09:02:25;100102.34;;;29.68;41.33
27805;BME280;15183;51.350;11.102;2023-05-21T09:04:55;100093.44;;;29.71;40.94
27805;BME280;15183;51.350;11.102;2023-05-21T09:07:25;100078.63;;;29.72;40.66
27805;BME280;15183;51.350;11.102;2023-05-21T09:10:03;100076.34;;;29.74;40.71
27805;BME280;15183;51.350;11.102;2023-05-21T09:12:34;100082.34;;;29.80;40.40
27805;BME280;15183;51.350;11.102;2023-05-21T09:15:00;100076.63;;;29.85;40.28
27805;BME280;15183;51.350;11.102;2023-05-21T09:17:27;100097.19;;;29.95;40.98
27805;BME280;15183;51.350;11.102;2023-05-21T09:20:13;100090.78;;;30.03;40.21
27805;BME280;15183;51.350;11.102;2023-05-21T09:22:47;100088.72;;;30.00;40.42
27805;BME280;15183;51.350;11.102;2023-05-21T09:25:16;100097.56;;;30.09;40.27
27805;BME280;15183;51.350;11.102;2023-05-21T09:27:44;100086.81;;;30.16;40.33
27805;BME280;15183;51.350;11.102;2023-05-21T09:30:12;100087.34;;;30.22;40.68
27805;BME280;15183;51.350;11.102;2023-05-21T09:32:40;100075.75;;;30.29;40.51
27805;BME280;15183;51.350;11.102;2023-05-21T09:35:11;100086.78;;;30.49;40.21
27805;BME280;15183;51.350;11.102;2023-05-21T09:37:44;100085.53;;;30.62;39.74
27805;BME280;15183;51.350;11.102;2023-05-21T09:40:14;100078.63;;;30.68;40.51
27805;BME280;15183;51.350;11.102;2023-05-21T09:42:49;100090.25;;;30.81;39.86
27805;BME280;15183;51.350;11.102;2023-05-21T09:45:19;100092.44;;;30.92;39.46
27805;BME280;15183;51.350;11.102;2023-05-21T09:47:47;100076.91;;;30.96;39.25
27805;BME280;15183;51.350;11.102;2023-05-21T09:50:19;100081.72;;;31.02;38.57
27805;BME280;15183;51.350;11.102;2023-05-21T09:52:47;100081.06;;;31.09;38.59
27805;BME280;15183;51.350;11.102;2023-05-21T09:55:16;100076.47;;;31.13;38.86
27805;BME280;15183;51.350;11.102;2023-05-21T09:57:46;100064.91;;;31.20;38.41
27805;BME280;15183;51.350;11.102;2023-05-21T10:02:53;100058.63;;;31.19;37.84
27805;BME280;15183;51.350;11.102;2023-05-21T10:05:20;100069.78;;;31.30;38.01
27805;BME280;15183;51.350;11.102;2023-05-21T10:07:50;100064.75;;;31.32;37.71
27805;BME280;15183;51.350;11.102;2023-05-21T10:10:20;100061.28;;;31.36;37.34
27805;BME280;15183;51.350;11.102;2023-05-21T10:12:54;100067.09;;;31.54;37.29
27805;BME280;15183;51.350;11.102;2023-05-21T10:15:24;100048.28;;;31.52;37.71
27805;BME280;15183;51.350;11.102;2023-05-21T10:17:53;100069.22;;;31.84;37.13
27805;BME280;15183;51.350;11.102;2023-05-21T10:20:21;100057.69;;;31.98;37.25
27805;BME280;15183;51.350;11.102;2023-05-21T10:22:49;100059.78;;;32.04;36.50
27805;BME280;15183;51.350;11.102;2023-05-21T10:25:16;100054.28;;;32.04;36.06
27805;BME280;15183;51.350;11.102;2023-05-21T10:27:44;100064.84;;;32.02;36.25
27805;BME280;15183;51.350;11.102;2023-05-21T10:30:11;100056.91;;;31.97;36.10
27805;BME280;15183;51.350;11.102;2023-05-21T10:32:39;100056.63;;;32.02;36.33
27805;BME280;15183;51.350;11.102;2023-05-21T10:35:08;100057.69;;;31.98;35.76
27805;BME280;15183;51.350;11.102;2023-05-21T10:37:35;100043.38;;;31.85;35.52
27805;BME280;15183;51.350;11.102;2023-05-21T10:40:01;100063.53;;;31.96;35.90
27805;BME280;15183;51.350;11.102;2023-05-21T10:45:30;100064.56;;;32.11;35.97
27805;BME280;15183;51.350;11.102;2023-05-21T10:48:40;100046.94;;;32.12;36.02
27805;BME280;15183;51.350;11.102;2023-05-21T10:51:25;100054.56;;;32.23;35.45
27805;BME280;15183;51.350;11.102;2023-05-21T10:54:36;100046.50;;;32.33;35.53
27805;BME280;15183;51.350;11.102;2023-05-21T11:00:10;100048.34;;;32.53;35.54
27805;BME280;15183;51.350;11.102;2023-05-21T11:02:38;100042.34;;;32.70;35.36
27805;BME280;15183;51.350;11.102;2023-05-21T11:05:05;100027.44;;;32.71;34.62
27805;BME280;15183;51.350;11.102;2023-05-21T11:07:52;100046.09;;;32.89;34.44
27805;BME280;15183;51.350;11.102;2023-05-21T11:10:40;100035.06;;;32.85;34.55
27805;BME280;15183;51.350;11.102;2023-05-21T11:13:13;100033.09;;;32.86;34.37
27805;BME280;15183;51.350;11.102;2023-05-21T11:16:02;100034.91;;;33.01;34.74
27805;BME280;15183;51.350;11.102;2023-05-21T11:21:10;100032.50;;;33.34;34.64
27805;BME280;15183;51.350;11.102;2023-05-21T11:24:03;100023.63;;;33.48;34.07
27805;BME280;15183;51.350;11.102;2023-05-21T11:29:34;100011.59;;;33.60;34.11
27805;BME280;15183;51.350;11.102;2023-05-21T11:32:07;100011.69;;;33.74;33.16
27805;BME280;15183;51.350;11.102;2023-05-21T11:34:43;100022.38;;;33.83;33.48
27805;BME280;15183;51.350;11.102;2023-05-21T11:39:43;100008.31;;;33.92;33.04
27805;BME280;15183;51.350;11.102;2023-05-21T11:42:10;100021.72;;;34.01;32.11
27805;BME280;15183;51.350;11.102;2023-05-21T11:44:47;100009.53;;;33.95;32.48
27805;BME280;15183;51.350;11.102;2023-05-21T11:47:16;99994.13;;;33.86;31.94
27805;BME280;15183;51.350;11.102;2023-05-21T11:49:44;99994.88;;;33.87;32.57
27805;BME280;15183;51.350;11.102;2023-05-21T11:52:12;99997.41;;;34.03;32.08
27805;BME280;15183;51.350;11.102;2023-05-21T11:54:44;100007.28;;;34.11;31.83
27805;BME280;15183;51.350;11.102;2023-05-21T11:57:13;99990.31;;;33.98;30.86
27805;BME280;15183;51.350;11.102;2023-05-21T11:59:45;99994.97;;;33.94;31.01
27805;BME280;15183;51.350;11.102;2023-05-21T12:02:16;100000.38;;;33.87;31.29
27805;BME280;15183;51.350;11.102;2023-05-21T12:04:45;100000.66;;;33.71;31.06
27805;BME280;15183;51.350;11.102;2023-05-21T12:07:16;100000.66;;;33.71;30.72
27805;BME280;15183;51.350;11.102;2023-05-21T12:09:47;100002.13;;;33.57;30.75
27805;BME280;15183;51.350;11.102;2023-05-21T12:12:17;99992.19;;;33.45;30.38
27805;BME280;15183;51.350;11.102;2023-05-21T12:14:48;99990.88;;;33.32;30.71
27805;BME280;15183;51.350;11.102;2023-05-21T12:19:47;99993.22;;;33.30;30.49
27805;BME280;15183;51.350;11.102;2023-05-21T12:22:14;99982.88;;;33.16;30.26
27805;BME280;15183;51.350;11.102;2023-05-21T12:24:42;99966.25;;;33.01;29.93
27805;BME280;15183;51.350;11.102;2023-05-21T12:27:10;99994.88;;;33.00;30.48
27805;BME280;15183;51.350;11.102;2023-05-21T12:29:44;99991.69;;;32.95;30.83
27805;BME280;15183;51.350;11.102;2023-05-21T12:32:13;99961.72;;;32.82;31.12
27805;BME280;15183;51.350;11.102;2023-05-21T12:34:42;99985.38;;;32.94;31.39
27805;BME280;15183;51.350;11.102;2023-05-21T12:39:52;99986.53;;;32.89;31.21
27805;BME280;15183;51.350;11.102;2023-05-21T12:42:26;99976.56;;;32.77;30.83
27805;BME280;15183;51.350;11.102;2023-05-21T12:44:55;99984.38;;;32.75;30.57
27805;BME280;15183;51.350;11.102;2023-05-21T12:47:24;99977.50;;;32.58;30.80
27805;BME280;15183;51.350;11.102;2023-05-21T12:49:56;99985.59;;;32.47;31.20
27805;BME280;15183;51.350;11.102;2023-05-21T12:52:23;99973.69;;;32.36;31.34
27805;BME280;15183;51.350;11.102;2023-05-21T12:54:52;99970.88;;;32.32;31.36
27805;BME280;15183;51.350;11.102;2023-05-21T12:59:59;99960.59;;;32.26;32.06
27805;BME280;15183;51.350;11.102;2023-05-21T13:02:39;99967.38;;;32.32;31.37
27805;BME280;15183;51.350;11.102;2023-05-21T13:05:14;99968.41;;;32.24;31.30
27805;BME280;15183;51.350;11.102;2023-05-21T13:07:42;99963.19;;;32.15;31.25
27805;BME280;15183;51.350;11.102;2023-05-21T13:10:12;99960.81;;;32.13;31.65
27805;BME280;15183;51.350;11.102;2023-05-21T13:12:38;99959.19;;;32.09;31.51
27805;BME280;15183;51.350;11.102;2023-05-21T13:15:05;99953.63;;;32.01;31.70